sensor_id;sensor_type;location;lat;lon;timestamp;pressure;altitude;pressure_sealevel;temperature
82400;BMP280;72039;48.812;8.198;2024-01-15T00:00:00;99587.25;;;-1.09
82400;BMP280;72039;48.812;8.198;2024-01-15T00:05:49;99581.81;;;-1.09
82400;BMP280;72039;48.812;8.198;2024-01-15T00:11:36;99578.16;;;-1.03
82400;BMP280;72039;48.812;8.198;2024-01-15T00:17:45;99583.44;;;-1.06
82400;BMP280;72039;48.812;8.198;2024-01-15T00:23:32;99580.19;;;-1.12
82400;BMP280;72039;48.812;8.198;2024-01-15T00:32:39;99568.94;;;-1.16
82400;BMP280;72039;48.812;8.198;2024-01-15T00:38:26;99575.84;;;-1.15
82400;BMP280;72039;48.812;8.198;2024-01-15T00:44:15;99580.94;;;-1.19
82400;BMP280;72039;48.812;8.198;2024-01-15T00:50:02;99588.56;;;-1.17
82400;BMP280;72039;48.812;8.198;2024-01-15T00:55:51;99595.63;;;-1.14
82400;BMP280;72039;48.812;8.198;2024-01-15T01:01:38;99585.66;;;-1.19
82400;BMP280;72039;48.812;8.198;2024-01-15T01:07:29;99572.22;;;-1.25
82400;BMP280;72039;48.812;8.198;2024-01-15T01:16:40;99565.38;;;-1.34
82400;BMP280;72039;48.812;8.198;2024-01-15T01:22:27;99556.66;;;-1.40
82400;BMP280;72039;48.812;8.198;2024-01-15T01:28:16;99546.13;;;-1.43
82400;BMP280;72039;48.812;8.198;2024-01-15T01:34:03;99553.75;;;-1.42
82400;BMP280;72039;48.812;8.198;2024-01-15T01:39:50;99553.03;;;-1.42
82400;BMP280;72039;48.812;8.198;2024-01-15T01:45:37;99545.75;;;-1.40
82400;BMP280;72039;48.812;8.198;2024-01-15T01:51:25;99537.94;;;-1.36
82400;BMP280;72039;48.812;8.198;2024-01-15T01:57:18;99526.53;;;-1.34
82400;BMP280;72039;48.812;8.198;2024-01-15T02:03:07;99531.63;;;-1.31
82400;BMP280;72039;48.812;8.198;2024-01-15T02:08:57;99531.06;;;-1.29
82400;BMP280;72039;48.812;8.198;2024-01-15T02:24:51;99513.81;;;-1.24
82400;BMP280;72039;48.812;8.198;2024-01-15T02:30:39;99522.28;;;-1.12
82400;BMP280;72039;48.812;8.198;2024-01-15T02:36:28;99514.66;;;-1.06
82400;BMP280;72039;48.812;8.198;2024-01-15T02:42:15;99514.97;;;-1.02
82400;BMP280;72039;48.812;8.198;2024-01-15T02:48:02;99511.53;;;-1.02
82400;BMP280;72039;48.812;8.198;2024-01-15T02:53:50;99512.25;;;-1.02
82400;BMP280;72039;48.812;8.198;2024-01-15T02:59:37;99497.53;;;-0.99
82400;BMP280;72039;48.812;8.198;2024-01-15T03:05:24;99500.59;;;-0.95
82400;BMP280;72039;48.812;8.198;2024-01-15T03:11:04;99503.84;;;-0.89
82400;BMP280;72039;48.812;8.198;2024-01-15T03:13:30;99484.78;;;-0.89
82400;BMP280;72039;48.812;8.198;2024-01-15T03:15:56;99491.81;;;-0.86
82400;BMP280;72039;48.812;8.198;2024-01-15T03:18:22;99493.28;;;-0.85
82400;BMP280;72039;48.812;8.198;2024-01-15T03:20:47;99494.00;;;-0.84
82400;BMP280;72039;48.812;8.198;2024-01-15T03:23:25;99492.00;;;-0.84
82400;BMP280;72039;48.812;8.198;2024-01-15T03:25:57;99490.72;;;-0.82
82400;BMP280;72039;48.812;8.198;2024-01-15T03:28:22;99493.47;;;-0.82
82400;BMP280;72039;48.812;8.198;2024-01-15T03:30:48;99488.00;;;-0.82
82400;BMP280;72039;48.812;8.198;2024-01-15T03:33:17;99477.13;;;-0.82
82400;BMP280;72039;48.812;8.198;2024-01-15T03:35:42;99474.38;;;-0.82
82400;BMP280;72039;48.812;8.198;2024-01-15T03:38:09;99474.72;;;-0.78
82400;BMP280;72039;48.812;8.198;2024-01-15T03:40:43;99477.59;;;-0.76
82400;BMP280;72039;48.812;8.198;2024-01-15T03:43:08;99474.34;;;-0.75
82400;BMP280;72039;48.812;8.198;2024-01-15T03:45:36;99467.06;;;-0.72
82400;BMP280;72039;48.812;8.198;2024-01-15T03:48:03;99464.50;;;-0.70
82400;BMP280;72039;48.812;8.198;2024-01-15T03:50:28;99468.81;;;-0.67
82400;BMP280;72039;48.812;8.198;2024-01-15T03:52:53;99467.72;;;-0.64
82400;BMP280;72039;48.812;8.198;2024-01-15T03:55:19;99450.97;;;-0.60
82400;BMP280;72039;48.812;8.198;2024-01-15T03:57:47;99454.44;;;-0.60
82400;BMP280;72039;48.812;8.198;2024-01-15T04:00:14;99444.97;;;-0.59
82400;BMP280;72039;48.812;8.198;2024-01-15T04:02:41;99445.16;;;-0.57
82400;BMP280;72039;48.812;8.198;2024-01-15T04:05:07;99444.75;;;-0.53
82400;BMP280;72039;48.812;8.198;2024-01-15T04:07:32;99448.38;;;-0.51
82400;BMP280;72039;48.812;8.198;2024-01-15T04:09:57;99437.63;;;-0.49
82400;BMP280;72039;48.812;8.198;2024-01-15T04:12:25;99426.19;;;-0.47
82400;BMP280;72039;48.812;8.198;2024-01-15T04:14:53;99429.78;;;-0.45
82400;BMP280;72039;48.812;8.198;2024-01-15T04:17:23;99431.25;;;-0.44
82400;BMP280;72039;48.812;8.198;2024-01-15T04:19:49;99427.22;;;-0.43
82400;BMP280;72039;48.812;8.198;2024-01-15T04:22:14;99429.41;;;-0.41
82400;BMP280;72039;48.812;8.198;2024-01-15T04:24:40;99426.09;;;-0.39
82400;BMP280;72039;48.812;8.198;2024-01-15T04:27:12;99429.00;;;-0.37
82400;BMP280;72039;48.812;8.198;2024-01-15T04:29:40;99422.28;;;-0.36
82400;BMP280;72039;48.812;8.198;2024-01-15T04:32:06;99427.16;;;-0.35
82400;BMP280;72039;48.812;8.198;2024-01-15T04:34:31;99425.88;;;-0.34
82400;BMP280;72039;48.812;8.198;2024-01-15T04:36:56;99421.69;;;-0.35
82400;BMP280;72039;48.812;8.198;2024-01-15T04:39:22;99417.19;;;-0.32
82400;BMP280;72039;48.812;8.198;2024-01-15T04:41:49;99429.31;;;-0.33
82400;BMP280;72039;48.812;8.198;2024-01-15T04:44:15;99428.59;;;-0.34
82400;BMP280;72039;48.812;8.198;2024-01-15T04:46:43;99431.88;;;-0.35
82400;BMP280;72039;48.812;8.198;2024-01-15T04:49:11;99423.16;;;-0.34
82400;BMP280;72039;48.812;8.198;2024-01-15T04:51:36;99421.69;;;-0.35
82400;BMP280;72039;48.812;8.198;2024-01-15T04:54:01;99408.66;;;-0.36
82400;BMP280;72039;48.812;8.198;2024-01-15T04:56:28;99409.19;;;-0.38
82400;BMP280;72039;48.812;8.198;2024-01-15T04:58:53;99414.09;;;-0.36
82400;BMP280;72039;48.812;8.198;2024-01-15T05:01:21;99417.72;;;-0.34
82400;BMP280;72039;48.812;8.198;2024-01-15T05:03:46;99410.78;;;-0.35
82400;BMP280;72039;48.812;8.198;2024-01-15T05:06:12;99406.09;;;-0.34
82400;BMP280;72039;48.812;8.198;2024-01-15T05:08:39;99417.00;;;-0.34
82400;BMP280;72039;48.812;8.198;2024-01-15T05:11:09;99406.81;;;-0.34
82400;BMP280;72039;48.812;8.198;2024-01-15T05:13:34;99397.91;;;-0.34
82400;BMP280;72039;48.812;8.198;2024-01-15T05:16:00;99395.19;;;-0.34
82400;BMP280;72039;48.812;8.198;2024-01-15T05:18:30;99385.00;;;-0.34
82400;BMP280;72039;48.812;8.198;2024-01-15T05:20:56;99388.44;;;-0.33
82400;BMP280;72039;48.812;8.198;2024-01-15T05:23:21;99380.25;;;-0.33
82400;BMP280;72039;48.812;8.198;2024-01-15T05:25:51;99380.81;;;-0.35
82400;BMP280;72039;48.812;8.198;2024-01-15T05:30:46;99383.00;;;-0.33
82400;BMP280;72039;48.812;8.198;2024-01-15T05:33:12;99387.19;;;-0.32
82400;BMP280;72039;48.812;8.198;2024-01-15T05:35:37;99374.09;;;-0.34
82400;BMP280;72039;48.812;8.198;2024-01-15T05:38:02;99370.06;;;-0.33
82400;BMP280;72039;48.812;8.198;2024-01-15T05:40:28;99362.09;;;-0.31
82400;BMP280;72039;48.812;8.198;2024-01-15T05:42:54;99367.00;;;-0.29
82400;BMP280;72039;48.812;8.198;2024-01-15T05:45:20;99365.69;;;-0.28
82400;BMP280;72039;48.812;8.198;2024-01-15T05:47:45;99341.31;;;-0.26
82400;BMP280;72039;48.812;8.198;2024-01-15T05:53:32;99363.47;;;-0.22
82400;BMP280;72039;48.812;8.198;2024-01-15T05:59:22;99362.91;;;-0.20
82400;BMP280;72039;48.812;8.198;2024-01-15T06:05:17;99345.97;;;-0.19
82400;BMP280;72039;48.812;8.198;2024-01-15T06:14:31;99325.78;;;-0.16
82400;BMP280;72039;48.812;8.198;2024-01-15T06:20:20;99314.28;;;-0.14
82400;BMP280;72039;48.812;8.198;2024-01-15T06:26:07;99332.66;;;-0.15
82400;BMP280;72039;48.812;8.198;2024-01-15T06:31:58;99341.16;;;-0.11
82400;BMP280;72039;48.812;8.198;2024-01-15T06:37:45;99342.75;;;-0.08
82400;BMP280;72039;48.812;8.198;2024-01-15T06:43:35;99332.34;;;-0.02
82400;BMP280;72039;48.812;8.198;2024-01-15T06:49:22;99321.00;;;0.02
82400;BMP280;72039;48.812;8.198;2024-01-15T06:55:09;99307.53;;;0.04
82400;BMP280;72039;48.812;8.198;2024-01-15T07:00:58;99305.69;;;0.07
82400;BMP280;72039;48.812;8.198;2024-01-15T07:06:50;99314.34;;;0.13
82400;BMP280;72039;48.812;8.198;2024-01-15T07:22:35;99338.38;;;0.24
82400;BMP280;72039;48.812;8.198;2024-01-15T07:28:28;99360.38;;;0.26
82400;BMP280;72039;48.812;8.198;2024-01-15T07:34:17;99368.56;;;0.26
82400;BMP280;72039;48.812;8.198;2024-01-15T07:40:05;99368.25;;;0.22
82400;BMP280;72039;48.812;8.198;2024-01-15T07:45:53;99379.31;;;0.24
82400;BMP280;72039;48.812;8.198;2024-01-15T07:51:40;99383.31;;;0.23
82400;BMP280;72039;48.812;8.198;2024-01-15T07:57:30;99381.88;;;0.22
82400;BMP280;72039;48.812;8.198;2024-01-15T08:03:16;99376.44;;;0.22
82400;BMP280;72039;48.812;8.198;2024-01-15T08:09:08;99376.81;;;0.18
82400;BMP280;72039;48.812;8.198;2024-01-15T08:25:02;99357.34;;;0.05
82400;BMP280;72039;48.812;8.198;2024-01-15T08:30:49;99375.16;;;0.06
82400;BMP280;72039;48.812;8.198;2024-01-15T08:36:36;99350.06;;;0.07
82400;BMP280;72039;48.812;8.198;2024-01-15T08:42:27;99340.25;;;0.04
82400;BMP280;72039;48.812;8.198;2024-01-15T08:48:14;99336.81;;;0.04
82400;BMP280;72039;48.812;8.198;2024-01-15T08:54:01;99331.53;;;0.06
82400;BMP280;72039;48.812;8.198;2024-01-15T08:59:48;99338.16;;;0.12
82400;BMP280;72039;48.812;8.198;2024-01-15T09:05:35;99325.56;;;0.17
82400;BMP280;72039;48.812;8.198;2024-01-15T09:11:24;99314.97;;;0.21
82400;BMP280;72039;48.812;8.198;2024-01-15T09:17:11;99307.22;;;0.27
82400;BMP280;72039;48.812;8.198;2024-01-15T09:22:58;99300.94;;;0.34
82400;BMP280;72039;48.812;8.198;2024-01-15T09:28:47;99290.47;;;0.40
82400;BMP280;72039;48.812;8.198;2024-01-15T09:34:34;99279.28;;;0.46
82400;BMP280;72039;48.812;8.198;2024-01-15T09:40:23;99278.88;;;0.50
82400;BMP280;72039;48.812;8.198;2024-01-15T09:46:18;99270.41;;;0.55
82400;BMP280;72039;48.812;8.198;2024-01-15T09:52:07;99274.75;;;0.58
82400;BMP280;72039;48.812;8.198;2024-01-15T09:57:58;99283.50;;;0.57
82400;BMP280;72039;48.812;8.198;2024-01-15T10:03:50;99268.25;;;0.44
82400;BMP280;72039;48.812;8.198;2024-01-15T10:09:37;99266.75;;;0.33
82400;BMP280;72039;48.812;8.198;2024-01-15T10:15:25;99244.91;;;0.33
82400;BMP280;72039;48.812;8.198;2024-01-15T10:23:46;99227.84;;;0.33
82400;BMP280;72039;48.812;8.198;2024-01-15T10:26:12;99223.81;;;0.34
82400;BMP280;72039;48.812;8.198;2024-01-15T10:28:40;99224.66;;;0.36
82400;BMP280;72039;48.812;8.198;2024-01-15T10:31:06;99229.72;;;0.40
82400;BMP280;72039;48.812;8.198;2024-01-15T10:33:34;99229.13;;;0.41
82400;BMP280;72039;48.812;8.198;2024-01-15T10:36:21;99217.81;;;0.45
82400;BMP280;72039;48.812;8.198;2024-01-15T10:38:47;99223.44;;;0.47
82400;BMP280;72039;48.812;8.198;2024-01-15T10:41:13;99208.63;;;0.50
82400;BMP280;72039;48.812;8.198;2024-01-15T10:43:38;99222.19;;;0.58
82400;BMP280;72039;48.812;8.198;2024-01-15T10:46:06;99225.94;;;0.62
82400;BMP280;72039;48.812;8.198;2024-01-15T10:48:32;99217.16;;;0.64
82400;BMP280;72039;48.812;8.198;2024-01-15T10:51:00;99227.66;;;0.68
82400;BMP280;72039;48.812;8.198;2024-01-15T10:53:28;99231.97;;;0.71
82400;BMP280;72039;48.812;8.198;2024-01-15T10:55:54;99233.44;;;0.72
82400;BMP280;72039;48.812;8.198;2024-01-15T10:58:20;99230.69;;;0.72
82400;BMP280;72039;48.812;8.198;2024-01-15T11:00:48;99234.13;;;0.72
82400;BMP280;72039;48.812;8.198;2024-01-15T11:03:14;99235.72;;;0.75
82400;BMP280;72039;48.812;8.198;2024-01-15T11:05:43;99233.69;;;0.76
82400;BMP280;72039;48.812;8.198;2024-01-15T11:08:09;99233.13;;;0.77
82400;BMP280;72039;48.812;8.198;2024-01-15T11:13:07;99217.31;;;0.76
82400;BMP280;72039;48.812;8.198;2024-01-15T11:15:59;99224.09;;;0.75
82400;BMP280;72039;48.812;8.198;2024-01-15T11:18:35;99218.63;;;0.75
82400;BMP280;72039;48.812;8.198;2024-01-15T11:24:01;99212.59;;;0.76
82400;BMP280;72039;48.812;8.198;2024-01-15T11:26:30;99222.06;;;0.75
82400;BMP280;72039;48.812;8.198;2024-01-15T11:28:57;99217.75;;;0.72
82400;BMP280;72039;48.812;8.198;2024-01-15T11:31:29;99213.00;;;0.73
82400;BMP280;72039;48.812;8.198;2024-01-15T11:34:14;99206.13;;;0.72
82400;BMP280;72039;48.812;8.198;2024-01-15T11:41:59;99220.59;;;0.64
82400;BMP280;72039;48.812;8.198;2024-01-15T11:44:27;99219.88;;;0.64
82400;BMP280;72039;48.812;8.198;2024-01-15T11:47:03;99225.94;;;0.62
82400;BMP280;72039;48.812;8.198;2024-01-15T11:52:19;99226.19;;;0.57
82400;BMP280;72039;48.812;8.198;2024-01-15T11:55:24;99234.22;;;0.55
82400;BMP280;72039;48.812;8.198;2024-01-15T11:57:55;99243.88;;;0.56
82400;BMP280;72039;48.812;8.198;2024-01-15T12:00:24;99254.78;;;0.56
82400;BMP280;72039;48.812;8.198;2024-01-15T12:02:50;99241.13;;;0.56
82400;BMP280;72039;48.812;8.198;2024-01-15T12:05:19;99256.22;;;0.57
82400;BMP280;72039;48.812;8.198;2024-01-15T12:07:47;99245.84;;;0.55
82400;BMP280;72039;48.812;8.198;2024-01-15T12:10:19;99245.13;;;0.55
82400;BMP280;72039;48.812;8.198;2024-01-15T12:13:18;99249.16;;;0.54
82400;BMP280;72039;48.812;8.198;2024-01-15T12:15:49;99246.59;;;0.56
82400;BMP280;72039;48.812;8.198;2024-01-15T12:18:19;99241.13;;;0.56
82400;BMP280;72039;48.812;8.198;2024-01-15T12:20:45;99250.03;;;0.56
82400;BMP280;72039;48.812;8.198;2024-01-15T12:23:14;99236.94;;;0.55
82400;BMP280;72039;48.812;8.198;2024-01-15T12:25:40;99241.84;;;0.56
82400;BMP280;72039;48.812;8.198;2024-01-15T12:28:08;99239.13;;;0.56
82400;BMP280;72039;48.812;8.198;2024-01-15T12:30:41;99236.94;;;0.55
82400;BMP280;72039;48.812;8.198;2024-01-15T12:33:08;99242.41;;;0.55
82400;BMP280;72039;48.812;8.198;2024-01-15T12:35:35;99254.03;;;0.55
82400;BMP280;72039;48.812;8.198;2024-01-15T12:38:00;99249.47;;;0.58
82400;BMP280;72039;48.812;8.198;2024-01-15T12:40:32;99244.16;;;0.60
82400;BMP280;72039;48.812;8.198;2024-01-15T12:42:59;99243.03;;;0.63
82400;BMP280;72039;48.812;8.198;2024-01-15T12:45:25;99246.31;;;0.61
82400;BMP280;72039;48.812;8.198;2024-01-15T12:47:55;99251.78;;;0.61
82400;BMP280;72039;48.812;8.198;2024-01-15T12:50:27;99252.47;;;0.62
82400;BMP280;72039;48.812;8.198;2024-01-15T12:53:02;99252.47;;;0.62
82400;BMP280;72039;48.812;8.198;2024-01-15T12:55:30;99249.59;;;0.60
82400;BMP280;72039;48.812;8.198;2024-01-15T12:57:55;99260.41;;;0.58
82400;BMP280;72039;48.812;8.198;2024-01-15T13:00:21;99261.13;;;0.58
82400;BMP280;72039;48.812;8.198;2024-01-15T13:02:49;99267.13;;;0.57
82400;BMP280;72039;48.812;8.198;2024-01-15T13:05:16;99268.59;;;0.58
82400;BMP280;72039;48.812;8.198;2024-01-15T13:07:44;99265.97;;;0.60
82400;BMP280;72039;48.812;8.198;2024-01-15T13:10:09;99268.16;;;0.61
82400;BMP280;72039;48.812;8.198;2024-01-15T13:12:40;99261.97;;;0.61
82400;BMP280;72039;48.812;8.198;2024-01-15T13:15:08;99263.41;;;0.62
82400;BMP280;72039;48.812;8.198;2024-01-15T13:17:37;99270.31;;;0.63
82400;BMP280;72039;48.812;8.198;2024-01-15T13:20:05;99271.19;;;0.66
82400;BMP280;72039;48.812;8.198;2024-01-15T13:22:31;99271.91;;;0.66
82400;BMP280;72039;48.812;8.198;2024-01-15T13:24:58;99278.06;;;0.67
82400;BMP280;72039;48.812;8.198;2024-01-15T13:27:24;99289.88;;;0.69
82400;BMP280;72039;48.812;8.198;2024-01-15T13:29:49;99284.72;;;0.73
82400;BMP280;72039;48.812;8.198;2024-01-15T13:32:17;99294.50;;;0.76
82400;BMP280;72039;48.812;8.198;2024-01-15T13:34:47;99291.19;;;0.78
82400;BMP280;72039;48.812;8.198;2024-01-15T13:37:12;99282.44;;;0.79
82400;BMP280;72039;48.812;8.198;2024-01-15T13:39:45;99282.00;;;0.83
82400;BMP280;72039;48.812;8.198;2024-01-15T13:42:12;99283.03;;;0.88
82400;BMP280;72039;48.812;8.198;2024-01-15T13:44:41;99286.06;;;0.92
82400;BMP280;72039;48.812;8.198;2024-01-15T13:47:09;99284.34;;;0.96
82400;BMP280;72039;48.812;8.198;2024-01-15T13:49:35;99291.53;;;1.01
82400;BMP280;72039;48.812;8.198;2024-01-15T13:52:04;99297.16;;;1.03
82400;BMP280;72039;48.812;8.198;2024-01-15T13:54:30;99298.03;;;1.06
82400;BMP280;72039;48.812;8.198;2024-01-15T13:57:00;99300.19;;;1.08
82400;BMP280;72039;48.812;8.198;2024-01-15T13:59:28;99297.63;;;1.10
82400;BMP280;72039;48.812;8.198;2024-01-15T14:01:53;99303.09;;;1.10
82400;BMP280;72039;48.812;8.198;2024-01-15T14:04:21;99314.31;;;1.14
82400;BMP280;72039;48.812;8.198;2024-01-15T14:06:51;99316.59;;;1.17
82400;BMP280;72039;48.812;8.198;2024-01-15T14:09:19;99311.28;;;1.19
82400;BMP280;72039;48.812;8.198;2024-01-15T14:11:47;99318.22;;;1.20
82400;BMP280;72039;48.812;8.198;2024-01-15T14:14:12;99316.03;;;1.38
82400;BMP280;72039;48.812;8.198;2024-01-15T14:16:40;99312.88;;;1.52
82400;BMP280;72039;48.812;8.198;2024-01-15T14:19:05;99310.44;;;1.65
82400;BMP280;72039;48.812;8.198;2024-01-15T14:21:34;99326.72;;;1.73
82400;BMP280;72039;48.812;8.198;2024-01-15T14:24:02;99316.75;;;1.97
82400;BMP280;72039;48.812;8.198;2024-01-15T14:26:29;99324.94;;;2.07
82400;BMP280;72039;48.812;8.198;2024-01-15T14:28:56;99323.06;;;2.09
82400;BMP280;72039;48.812;8.198;2024-01-15T14:31:21;99336.88;;;2.11
82400;BMP280;72039;48.812;8.198;2024-01-15T14:33:47;99345.56;;;2.08
82400;BMP280;72039;48.812;8.198;2024-01-15T14:36:12;99362.84;;;2.10
82400;BMP280;72039;48.812;8.198;2024-01-15T14:38:42;99363.25;;;2.17
82400;BMP280;72039;48.812;8.198;2024-01-15T14:41:10;99372.03;;;2.15
82400;BMP280;72039;48.812;8.198;2024-01-15T14:43:35;99374.19;;;2.07
82400;BMP280;72039;48.812;8.198;2024-01-15T14:46:03;99380.97;;;1.96
82400;BMP280;72039;48.812;8.198;2024-01-15T14:48:28;99384.31;;;1.85
82400;BMP280;72039;48.812;8.198;2024-01-15T14:50:54;99391.63;;;1.73
82400;BMP280;72039;48.812;8.198;2024-01-15T14:53:24;99400.53;;;1.63
82400;BMP280;72039;48.812;8.198;2024-01-15T14:55:52;99407.56;;;1.57
82400;BMP280;72039;48.812;8.198;2024-01-15T14:58:19;99412.03;;;1.52
82400;BMP280;72039;48.812;8.198;2024-01-15T15:00:44;99422.25;;;1.52
82400;BMP280;72039;48.812;8.198;2024-01-15T15:03:11;99420.09;;;1.50
82400;BMP280;72039;48.812;8.198;2024-01-15T15:05:39;99421.09;;;1.45
82400;BMP280;72039;48.812;8.198;2024-01-15T15:08:04;99422.22;;;1.42
82400;BMP280;72039;48.812;8.198;2024-01-15T15:10:33;99422.50;;;1.36
82400;BMP280;72039;48.812;8.198;2024-01-15T15:13:01;99432.59;;;1.34
82400;BMP280;72039;48.812;8.198;2024-01-15T15:15:28;99437.88;;;1.32
82400;BMP280;72039;48.812;8.198;2024-01-15T15:17:58;99437.88;;;1.32
82400;BMP280;72039;48.812;8.198;2024-01-15T15:20:24;99445.81;;;1.27
82400;BMP280;72039;48.812;8.198;2024-01-15T15:22:49;99439.59;;;1.27
82400;BMP280;72039;48.812;8.198;2024-01-15T15:25:14;99441.47;;;1.24
82400;BMP280;72039;48.812;8.198;2024-01-15T15:27:42;99457.00;;;1.22
82400;BMP280;72039;48.812;8.198;2024-01-15T15:30:10;99450.09;;;1.21
82400;BMP280;72039;48.812;8.198;2024-01-15T15:32:38;99455.97;;;1.17
82400;BMP280;72039;48.812;8.198;2024-01-15T15:35:28;99456.56;;;1.16
82400;BMP280;72039;48.812;8.198;2024-01-15T15:37:56;99451.66;;;1.14
82400;BMP280;72039;48.812;8.198;2024-01-15T15:40:23;99461.13;;;1.13
82400;BMP280;72039;48.812;8.198;2024-01-15T15:42:53;99465.88;;;1.13
82400;BMP280;72039;48.812;8.198;2024-01-15T15:45:18;99466.44;;;1.11
82400;BMP280;72039;48.812;8.198;2024-01-15T15:47:46;99469.91;;;1.12
82400;BMP280;72039;48.812;8.198;2024-01-15T15:50:14;99475.38;;;1.12
82400;BMP280;72039;48.812;8.198;2024-01-15T15:52:40;99480.13;;;1.11
82400;BMP280;72039;48.812;8.198;2024-01-15T15:55:05;99480.13;;;1.11
82400;BMP280;72039;48.812;8.198;2024-01-15T15:57:37;99482.97;;;1.13
82400;BMP280;72039;48.812;8.198;2024-01-15T16:00:04;99483.72;;;1.14
82400;BMP280;72039;48.812;8.198;2024-01-15T16:02:30;99492.63;;;1.14
82400;BMP280;72039;48.812;8.198;2024-01-15T16:04:55;99489.19;;;1.14
82400;BMP280;72039;48.812;8.198;2024-01-15T16:07:21;99485.72;;;1.13
82400;BMP280;72039;48.812;8.198;2024-01-15T16:09:48;99492.47;;;1.12
82400;BMP280;72039;48.812;8.198;2024-01-15T16:12:14;99501.38;;;1.13
82400;BMP280;72039;48.812;8.198;2024-01-15T16:14:44;99504.13;;;1.13
82400;BMP280;72039;48.812;8.198;2024-01-15T16:17:09;99509.59;;;1.13
82400;BMP280;72039;48.812;8.198;2024-01-15T16:19:34;99516.50;;;1.14
82400;BMP280;72039;48.812;8.198;2024-01-15T16:22:03;99515.22;;;1.15
82400;BMP280;72039;48.812;8.198;2024-01-15T16:24:31;99529.28;;;1.11
82400;BMP280;72039;48.812;8.198;2024-01-15T16:26:56;99524.22;;;1.08
82400;BMP280;72039;48.812;8.198;2024-01-15T16:29:22;99535.31;;;1.10
82400;BMP280;72039;48.812;8.198;2024-01-15T16:31:49;99540.78;;;1.10
82400;BMP280;72039;48.812;8.198;2024-01-15T16:34:17;99540.78;;;1.10
82400;BMP280;72039;48.812;8.198;2024-01-15T16:36:43;99538.78;;;1.10
82400;BMP280;72039;48.812;8.198;2024-01-15T16:39:11;99542.22;;;1.11
82400;BMP280;72039;48.812;8.198;2024-01-15T16:41:36;99556.63;;;1.11
82400;BMP280;72039;48.812;8.198;2024-01-15T16:44:02;99555.88;;;1.11
82400;BMP280;72039;48.812;8.198;2024-01-15T16:46:29;99561.34;;;1.11
82400;BMP280;72039;48.812;8.198;2024-01-15T16:48:55;99553.72;;;1.09
82400;BMP280;72039;48.812;8.198;2024-01-15T16:51:23;99564.50;;;1.07
82400;BMP280;72039;48.812;8.198;2024-01-15T16:53:49;99571.41;;;1.08
82400;BMP280;72039;48.812;8.198;2024-01-15T16:56:14;99578.16;;;1.07
82400;BMP280;72039;48.812;8.198;2024-01-15T16:58:40;99573.97;;;1.06
82400;BMP280;72039;48.812;8.198;2024-01-15T17:01:08;99581.44;;;1.05
82400;BMP280;72039;48.812;8.198;2024-01-15T17:03:33;99582.91;;;1.07
82400;BMP280;72039;48.812;8.198;2024-01-15T17:06:01;99587.63;;;1.06
82400;BMP280;72039;48.812;8.198;2024-01-15T17:08:29;99595.81;;;1.06
82400;BMP280;72039;48.812;8.198;2024-01-15T17:10:54;99591.66;;;1.05
82400;BMP280;72039;48.812;8.198;2024-01-15T17:13:20;99596.41;;;1.04
82400;BMP280;72039;48.812;8.198;2024-01-15T17:15:45;99601.88;;;1.04
82400;BMP280;72039;48.812;8.198;2024-01-15T17:18:13;99609.19;;;1.02
82400;BMP280;72039;48.812;8.198;2024-01-15T17:20:38;99622.28;;;1.03
82400;BMP280;72039;48.812;8.198;2024-01-15T17:23:10;99619.38;;;1.01
82400;BMP280;72039;48.812;8.198;2024-01-15T17:25:36;99621.22;;;0.99
82400;BMP280;72039;48.812;8.198;2024-01-15T17:28:02;99619.63;;;0.96
82400;BMP280;72039;48.812;8.198;2024-01-15T17:30:28;99624.59;;;0.90
82400;BMP280;72039;48.812;8.198;2024-01-15T17:32:57;99633.75;;;0.84
82400;BMP280;72039;48.812;8.198;2024-01-15T17:35:22;99636.34;;;0.82
82400;BMP280;72039;48.812;8.198;2024-01-15T17:37:51;99635.28;;;0.78
82400;BMP280;72039;48.812;8.198;2024-01-15T17:40:17;99648.78;;;0.76
82400;BMP280;72039;48.812;8.198;2024-01-15T17:42:42;99659.41;;;0.72
82400;BMP280;72039;48.812;8.198;2024-01-15T17:45:12;99662.34;;;0.66
82400;BMP280;72039;48.812;8.198;2024-01-15T17:47:40;99666.19;;;0.63
82400;BMP280;72039;48.812;8.198;2024-01-15T17:50:08;99678.09;;;0.58
82400;BMP280;72039;48.812;8.198;2024-01-15T17:52:34;99670.44;;;0.56
82400;BMP280;72039;48.812;8.198;2024-01-15T17:55:01;99685.38;;;0.55
82400;BMP280;72039;48.812;8.198;2024-01-15T17:57:33;99685.94;;;0.54
82400;BMP280;72039;48.812;8.198;2024-01-15T18:00:00;99683.94;;;0.54
82400;BMP280;72039;48.812;8.198;2024-01-15T18:02:26;99685.38;;;0.55
82400;BMP280;72039;48.812;8.198;2024-01-15T18:04:54;99698.28;;;0.55
82400;BMP280;72039;48.812;8.198;2024-01-15T18:07:19;99693.00;;;0.57
82400;BMP280;72039;48.812;8.198;2024-01-15T18:09:45;99691.56;;;0.56
82400;BMP280;72039;48.812;8.198;2024-01-15T18:12:15;99695.19;;;0.58
82400;BMP280;72039;48.812;8.198;2024-01-15T18:14:40;99700.66;;;0.58
82400;BMP280;72039;48.812;8.198;2024-01-15T18:17:10;99707.00;;;0.61
82400;BMP280;72039;48.812;8.198;2024-01-15T18:19:38;99720.63;;;0.61
82400;BMP280;72039;48.812;8.198;2024-01-15T18:22:06;99713.72;;;0.60
82400;BMP280;72039;48.812;8.198;2024-01-15T18:24:32;99720.63;;;0.61
82400;BMP280;72039;48.812;8.198;2024-01-15T18:26:57;99722.09;;;0.62
82400;BMP280;72039;48.812;8.198;2024-01-15T18:29:26;99726.28;;;0.63
82400;BMP280;72039;48.812;8.198;2024-01-15T18:31:51;99727.72;;;0.64
82400;BMP280;72039;48.812;8.198;2024-01-15T18:34:17;99730.44;;;0.64
82400;BMP280;72039;48.812;8.198;2024-01-15T18:36:42;99731.91;;;0.65
82400;BMP280;72039;48.812;8.198;2024-01-15T18:39:11;99720.97;;;0.65
82400;BMP280;72039;48.812;8.198;2024-01-15T18:41:37;99719.69;;;0.66
82400;BMP280;72039;48.812;8.198;2024-01-15T18:44:05;99723.88;;;0.67
82400;BMP280;72039;48.812;8.198;2024-01-15T18:46:30;99730.06;;;0.68
82400;BMP280;72039;48.812;8.198;2024-01-15T18:48:55;99728.03;;;0.68
82400;BMP280;72039;48.812;8.198;2024-01-15T18:51:22;99733.84;;;0.72
82400;BMP280;72039;48.812;8.198;2024-01-15T18:53:55;99747.50;;;0.72
82400;BMP280;72039;48.812;8.198;2024-01-15T18:56:23;99739.47;;;0.74
82400;BMP280;72039;48.812;8.198;2024-01-15T18:58:51;99745.09;;;0.76
82400;BMP280;72039;48.812;8.198;2024-01-15T19:01:27;99747.66;;;0.74
82400;BMP280;72039;48.812;8.198;2024-01-15T19:03:56;99748.94;;;0.73
82400;BMP280;72039;48.812;8.198;2024-01-15T19:10:08;99751.50;;;0.71
82400;BMP280;72039;48.812;8.198;2024-01-15T19:15:58;99759.69;;;0.71
82400;BMP280;72039;48.812;8.198;2024-01-15T19:21:47;99762.09;;;0.67
82400;BMP280;72039;48.812;8.198;2024-01-15T19:27:36;99770.84;;;0.66
82400;BMP280;72039;48.812;8.198;2024-01-15T19:33:30;99771.22;;;0.62
82400;BMP280;72039;48.812;8.198;2024-01-15T19:39:19;99770.69;;;0.63
82400;BMP280;72039;48.812;8.198;2024-01-15T19:45:10;99777.03;;;0.66
82400;BMP280;72039;48.812;8.198;2024-01-15T19:50:57;99788.19;;;0.60